Time;durP1;ratioP1;P1;durP2;ratioP2;P2;SDS_P1;SDS_P2;PMS_P1;PMS_P2;Temp;Humidity;BMP_temperature;BMP_pressure;BME280_temperature;BME280_humidity;BME280_pressure;Samples;Min_cycle;Max_cycle;Signal;HPM_P1;HPM_P2
2024/02/28 00:01:52;;;;;;;8.57;5.82;;;;;;;;;;4994965;28;20113;-62
2024/02/28 00:04:45;;;;;;;8.57;5.60;;;;;;;;;;4992405;28;20057;-59
2024/02/28 00:07:32;;;;;;;9.13;6.03;;;;;;;;;;4993026;28;20057;-61
2024/02/28 00:10:26;;;;;;;10.13;5.55;;;;;;;;;;4993937;28;20398;-61
2024/02/28 00:13:15;;;;;;;8.88;5.85;;;;;;;;;;4994437;28;20061;-65
2024/02/28 00:16:08;;;;;;;10.70;6.10;;;;;;;;;;4991824;28;20050;-63
2024/02/28 00:18:49;;;;;;;11.13;5.82;;;;;;;;;;4997994;28;20053;-63
2024/02/28 00:21:16;;;;;;;13.32;6.18;;;;;;;;;;4994450;28;20517;-63
2024/02/28 00:23:50;;;;;;;9.95;6.20;;;;;;;;;;4994311;28;20525;-63
2024/02/28 00:26:17;;;;;;;10.63;6.57;;;;;;;;;;4999000;28;24034;-63
2024/02/28 00:28:45;;;;;;;11.13;6.35;;;;;;;;;;4996903;28;20181;-63
2024/02/28 00:31:38;;;;;;;12.07;6.38;;;;;;;;;;4995401;28;20136;-62
2024/02/28 00:34:32;;;;;;;11.45;6.40;;;;;;;;;;4993661;28;20117;-62
2024/02/28 00:37:19;;;;;;;7.97;6.00;;;;;;;;;;4997827;28;20046;-61
2024/02/28 00:40:13;;;;;;;11.48;7.28;;;;;;;;;;4988419;28;20062;-65
2024/02/28 00:43:01;;;;;;;10.48;6.97;;;;;;;;;;4996962;28;20060;-64
2024/02/28 00:45:55;;;;;;;10.80;6.30;;;;;;;;;;4991074;28;20703;-66
2024/02/28 00:48:48;;;;;;;14.80;7.43;;;;;;;;;;4995062;28;20124;-65
2024/02/28 00:51:42;;;;;;;12.65;7.35;;;;;;;;;;4998417;28;20053;-65
2024/02/28 00:54:36;;;;;;;10.80;7.00;;;;;;;;;;4991796;28;20575;-65
2024/02/28 00:57:30;;;;;;;10.93;6.82;;;;;;;;;;4999482;28;20042;-66
2024/02/28 01:00:18;;;;;;;11.77;6.88;;;;;;;;;;4999514;28;20588;-60
2024/02/28 01:03:14;;;;;;;12.35;7.55;;;;;;;;;;5000014;28;20069;-60
2024/02/28 01:06:00;;;;;;;11.60;6.75;;;;;;;;;;4992854;28;20057;-61
2024/02/28 01:08:52;;;;;;;11.68;7.47;;;;;;;;;;4997646;28;20099;-66
2024/02/28 01:11:39;;;;;;;13.85;7.20;;;;;;;;;;4997961;28;20066;-52
2024/02/28 01:14:33;;;;;;;11.68;7.50;;;;;;;;;;5000070;28;20057;-52
2024/02/28 01:17:27;;;;;;;14.68;8.70;;;;;;;;;;4990825;28;20144;-51
2024/02/28 01:20:21;;;;;;;13.02;7.95;;;;;;;;;;4994433;28;20073;-54
2024/02/28 01:23:08;;;;;;;15.85;9.68;;;;;;;;;;4995036;28;20520;-49
2024/02/28 01:26:03;;;;;;;17.95;9.88;;;;;;;;;;4994714;28;20054;-46
2024/02/28 01:28:50;;;;;;;15.57;8.82;;;;;;;;;;4995026;28;20417;-64
2024/02/28 01:31:43;;;;;;;14.45;9.00;;;;;;;;;;4994794;28;20559;-64
2024/02/28 01:34:30;;;;;;;16.23;9.90;;;;;;;;;;4997744;28;20057;-64
2024/02/28 01:37:24;;;;;;;15.77;9.63;;;;;;;;;;4997303;28;20055;-63
2024/02/28 01:40:18;;;;;;;17.15;10.07;;;;;;;;;;4996727;28;20072;-54
2024/02/28 01:43:08;;;;;;;18.58;10.50;;;;;;;;;;4998505;28;20131;-51
2024/02/28 01:46:04;;;;;;;19.92;11.07;;;;;;;;;;4995106;28;20050;-54
2024/02/28 01:48:59;;;;;;;16.80;9.15;;;;;;;;;;4995414;28;21370;-49
2024/02/28 01:51:47;;;;;;;15.55;9.32;;;;;;;;;;4994304;28;20061;-54
2024/02/28 01:54:40;;;;;;;16.33;9.80;;;;;;;;;;4990408;28;20054;-51
2024/02/28 01:57:36;;;;;;;19.27;10.23;;;;;;;;;;4984846;28;20563;-65
2024/02/28 02:00:23;;;;;;;16.15;9.73;;;;;;;;;;4990670;28;20050;-64
2024/02/28 02:03:16;;;;;;;16.27;9.25;;;;;;;;;;4991448;28;20054;-64
2024/02/28 02:06:04;;;;;;;16.65;8.98;;;;;;;;;;4996267;28;20520;-63
2024/02/28 02:08:58;;;;;;;13.38;8.38;;;;;;;;;;4985823;28;20412;-50
2024/02/28 02:11:45;;;;;;;16.75;8.82;;;;;;;;;;4992240;28;20145;-50
2024/02/28 02:14:38;;;;;;;14.85;8.88;;;;;;;;;;4992292;28;20055;-54
2024/02/28 02:17:39;;;;;;;15.43;9.55;;;;;;;;;;4993579;28;21686;-51
2024/02/28 02:20:27;;;;;;;15.32;9.90;;;;;;;;;;4993401;28;20061;-51
2024/02/28 02:23:20;;;;;;;17.48;10.10;;;;;;;;;;4994216;28;20056;-53
2024/02/28 02:26:08;;;;;;;16.55;9.73;;;;;;;;;;4992689;28;20057;-63
2024/02/28 02:29:01;;;;;;;18.33;10.18;;;;;;;;;;4995651;28;20090;-66
2024/02/28 02:31:48;;;;;;;18.83;9.85;;;;;;;;;;4991203;28;20054;-65
2024/02/28 02:34:49;;;;;;;16.63;10.52;;;;;;;;;;4996115;28;20167;-65
2024/02/28 02:37:36;;;;;;;17.15;10.90;;;;;;;;;;4992641;28;20109;-66
2024/02/28 02:40:30;;;;;;;15.27;9.70;;;;;;;;;;4995131;28;20112;-66
2024/02/28 02:43:24;;;;;;;17.25;10.52;;;;;;;;;;4993668;28;20155;-60
2024/02/28 02:46:17;;;;;;;21.20;11.35;;;;;;;;;;4993314;28;20521;-56
2024/02/28 02:49:04;;;;;;;16.85;10.10;;;;;;;;;;4991601;28;20085;-56
2024/02/28 02:51:58;;;;;;;20.85;11.55;;;;;;;;;;4990912;28;20064;-65
2024/02/28 02:54:45;;;;;;;19.40;11.10;;;;;;;;;;4992910;28;20054;-62
2024/02/28 02:57:40;;;;;;;19.30;11.23;;;;;;;;;;4995544;28;20410;-62
2024/02/28 03:00:27;;;;;;;18.13;8.68;;;;;;;;;;4992548;28;20506;-62
2024/02/28 03:03:22;;;;;;;16.85;11.35;;;;;;;;;;4991384;28;20061;-61
2024/02/28 03:06:10;;;;;;;18.25;11.02;;;;;;;;;;4996254;28;20239;-61
2024/02/28 03:09:03;;;;;;;18.67;10.75;;;;;;;;;;4997722;28;20672;-62
2024/02/28 03:11:49;;;;;;;19.55;11.25;;;;;;;;;;4995575;28;20092;-52
2024/02/28 03:14:43;;;;;;;16.92;10.20;;;;;;;;;;4993776;28;20355;-57
2024/02/28 03:17:37;;;;;;;17.65;11.40;;;;;;;;;;4992538;28;20058;-57
2024/02/28 03:20:31;;;;;;;20.08;11.80;;;;;;;;;;4994511;28;20049;-60
2024/02/28 03:23:18;;;;;;;18.50;10.68;;;;;;;;;;4995174;28;20934;-58
2024/02/28 03:26:12;;;;;;;17.75;10.27;;;;;;;;;;4993705;28;20049;-57
2024/02/28 03:29:00;;;;;;;25.15;11.25;;;;;;;;;;4995227;28;20054;-51
2024/02/28 03:31:53;;;;;;;17.15;11.02;;;;;;;;;;4993609;28;20058;-48
2024/02/28 03:34:40;;;;;;;20.08;10.73;;;;;;;;;;4993123;28;20108;-52
2024/02/28 03:37:34;;;;;;;20.83;12.18;;;;;;;;;;4994523;28;20046;-49
2024/02/28 03:40:28;;;;;;;15.23;10.27;;;;;;;;;;4995524;28;20054;-62
2024/02/28 03:43:22;;;;;;;17.08;10.90;;;;;;;;;;4991765;28;20422;-64
2024/02/28 03:46:16;;;;;;;18.05;12.07;;;;;;;;;;4994935;28;20062;-63
2024/02/28 03:49:10;;;;;;;19.08;11.52;;;;;;;;;;4997257;28;20050;-63
2024/02/28 03:52:06;;;;;;;18.42;10.73;;;;;;;;;;4993139;28;20050;-63
2024/02/28 03:54:52;;;;;;;17.15;11.60;;;;;;;;;;4993747;28;20426;-63
2024/02/28 03:57:51;;;;;;;22.38;12.18;;;;;;;;;;4995131;28;20050;-57
2024/02/28 04:00:44;;;;;;;20.02;12.35;;;;;;;;;;4995111;28;20128;-57
2024/02/28 04:03:30;;;;;;;20.45;12.60;;;;;;;;;;4995302;28;20046;-56
2024/02/28 04:06:24;;;;;;;17.27;11.13;;;;;;;;;;4989337;28;20132;-55
2024/02/28 04:09:11;;;;;;;20.65;12.25;;;;;;;;;;4993855;28;20050;-66
2024/02/28 04:12:04;;;;;;;19.65;11.60;;;;;;;;;;4987944;28;20119;-63
2024/02/28 04:14:58;;;;;;;21.40;12.75;;;;;;;;;;4988922;28;20068;-63
2024/02/28 04:17:52;;;;;;;21.98;11.85;;;;;;;;;;4990224;28;20057;-62
2024/02/28 04:20:46;;;;;;;24.02;13.18;;;;;;;;;;4978043;28;20058;-63
2024/02/28 04:23:33;;;;;;;21.77;12.57;;;;;;;;;;4993272;28;20050;-63
2024/02/28 04:26:27;;;;;;;20.55;12.77;;;;;;;;;;4999154;28;20046;-66
2024/02/28 04:29:14;;;;;;;21.30;12.27;;;;;;;;;;4983375;28;20411;-66
2024/02/28 04:32:08;;;;;;;24.48;13.68;;;;;;;;;;4994590;28;20054;-66
2024/02/28 04:34:56;;;;;;;23.52;13.63;;;;;;;;;;5000618;28;20045;-66
2024/02/28 04:37:49;;;;;;;22.85;13.73;;;;;;;;;;4997619;28;21455;-55
2024/02/28 04:40:36;;;;;;;24.17;13.23;;;;;;;;;;4999073;28;20062;-52
2024/02/28 04:43:30;;;;;;;24.92;13.77;;;;;;;;;;4995441;28;20050;-50
2024/02/28 04:46:17;;;;;;;22.08;13.43;;;;;;;;;;4991394;28;20077;-50
2024/02/28 04:49:11;;;;;;;21.10;12.65;;;;;;;;;;4998864;28;20058;-48
2024/02/28 04:51:58;;;;;;;25.85;14.20;;;;;;;;;;4996430;28;20054;-48
2024/02/28 04:54:53;;;;;;;24.00;13.80;;;;;;;;;;4995758;28;20054;-50
2024/02/28 04:57:39;;;;;;;27.45;13.75;;;;;;;;;;4994499;28;20367;-49
2024/02/28 05:00:33;;;;;;;26.80;14.18;;;;;;;;;;5001018;28;20728;-50
2024/02/28 05:03:22;;;;;;;29.00;14.73;;;;;;;;;;4994592;28;20088;-50
2024/02/28 05:06:14;;;;;;;27.50;13.40;;;;;;;;;;4993473;28;20053;-64
2024/02/28 05:09:08;;;;;;;23.13;14.13;;;;;;;;;;4994733;28;20058;-65
2024/02/28 05:12:03;;;;;;;26.92;13.85;;;;;;;;;;4994226;28;20050;-65
2024/02/28 05:14:50;;;;;;;23.42;13.70;;;;;;;;;;4998353;28;20045;-66
2024/02/28 05:17:54;;;;;;;21.27;12.80;;;;;;;;;;4996174;28;20050;-65
2024/02/28 05:20:54;;;;;;;26.50;13.38;;;;;;;;;;4995309;28;20062;-66
2024/02/28 05:23:41;;;;;;;24.80;12.88;;;;;;;;;;4998453;28;20054;-61
2024/02/28 05:26:36;;;;;;;23.45;13.55;;;;;;;;;;4998174;28;20066;-61
2024/02/28 05:29:23;;;;;;;21.15;13.18;;;;;;;;;;4993230;28;20097;-61
2024/02/28 05:32:17;;;;;;;23.67;14.40;;;;;;;;;;4993229;28;20517;-60
2024/02/28 05:35:04;;;;;;;26.48;13.40;;;;;;;;;;4993683;28;20058;-57
2024/02/28 05:37:57;;;;;;;25.75;13.95;;;;;;;;;;4992436;28;20505;-67
2024/02/28 05:40:44;;;;;;;23.83;13.25;;;;;;;;;;4998357;28;20536;-66
2024/02/28 05:43:38;;;;;;;23.85;13.95;;;;;;;;;;4988495;28;20084;-66
2024/02/28 05:46:26;;;;;;;23.15;13.65;;;;;;;;;;4997998;28;20058;-67
2024/02/28 05:49:19;;;;;;;22.92;12.93;;;;;;;;;;4996077;28;20425;-67
2024/02/28 05:52:07;;;;;;;26.55;14.25;;;;;;;;;;4993149;28;20054;-51
2024/02/28 05:55:00;;;;;;;23.25;13.52;;;;;;;;;;4995617;28;20112;-50
2024/02/28 05:57:48;;;;;;;28.63;15.38;;;;;;;;;;4992477;28;20062;-48
2024/02/28 06:00:41;;;;;;;24.00;13.45;;;;;;;;;;4995565;28;20050;-48
2024/02/28 06:03:29;;;;;;;30.27;13.57;;;;;;;;;;4986593;28;20066;-51
2024/02/28 06:06:22;;;;;;;26.25;14.45;;;;;;;;;;4990188;28;20105;-48
2024/02/28 06:09:10;;;;;;;26.05;15.02;;;;;;;;;;4998534;28;20058;-52
2024/02/28 06:12:03;;;;;;;26.75;15.30;;;;;;;;;;4997150;28;20049;-64
2024/02/28 06:14:51;;;;;;;30.65;15.85;;;;;;;;;;4997147;28;20069;-51
2024/02/28 06:17:44;;;;;;;28.15;15.32;;;;;;;;;;4996645;28;20101;-55
2024/02/28 06:20:38;;;;;;;26.75;16.00;;;;;;;;;;4997490;28;20136;-53
2024/02/28 06:23:25;;;;;;;28.95;15.82;;;;;;;;;;4998091;28;24413;-50
2024/02/28 06:26:20;;;;;;;31.35;17.05;;;;;;;;;;4999931;28;20045;-53
2024/02/28 06:29:07;;;;;;;33.28;16.27;;;;;;;;;;4998061;28;20046;-54
2024/02/28 06:32:00;;;;;;;30.02;16.30;;;;;;;;;;4999554;28;20050;-48
2024/02/28 06:34:47;;;;;;;32.63;16.60;;;;;;;;;;4996192;28;20061;-49
2024/02/28 06:37:49;;;;;;;30.40;15.82;;;;;;;;;;4997820;28;20050;-50
2024/02/28 06:40:35;;;;;;;38.08;16.98;;;;;;;;;;4997831;28;20060;-48
2024/02/28 06:43:30;;;;;;;30.05;16.58;;;;;;;;;;4993472;28;20068;-50
2024/02/28 06:46:17;;;;;;;36.70;18.40;;;;;;;;;;4996953;28;20062;-65
2024/02/28 06:49:10;;;;;;;30.95;17.23;;;;;;;;;;4997200;28;20049;-63
2024/02/28 06:52:01;;;;;;;33.88;17.40;;;;;;;;;;4996811;28;20501;-65
2024/02/28 06:54:51;;;;;;;33.38;17.45;;;;;;;;;;4999790;28;20065;-65
2024/02/28 06:57:45;;;;;;;35.15;18.35;;;;;;;;;;4991049;28;20136;-65
2024/02/28 07:00:33;;;;;;;33.47;17.25;;;;;;;;;;4997547;28;20061;-65
2024/02/28 07:03:28;;;;;;;33.53;17.85;;;;;;;;;;4995208;28;20054;-65
2024/02/28 07:06:16;;;;;;;36.17;18.05;;;;;;;;;;4999327;28;20074;-55
2024/02/28 07:09:09;;;;;;;34.15;16.77;;;;;;;;;;4995704;28;20663;-62
2024/02/28 07:11:57;;;;;;;39.85;20.80;;;;;;;;;;4998125;28;20057;-63
2024/02/28 07:14:51;;;;;;;40.65;17.60;;;;;;;;;;4999129;28;20417;-63
2024/02/28 07:17:51;;;;;;;37.38;18.70;;;;;;;;;;4999715;28;20325;-63
2024/02/28 07:20:39;;;;;;;36.35;18.05;;;;;;;;;;5000937;28;20049;-63
2024/02/28 07:23:32;;;;;;;41.33;18.48;;;;;;;;;;4998235;28;20137;-59
2024/02/28 07:26:19;;;;;;;38.80;18.25;;;;;;;;;;5000384;28;20112;-49
2024/02/28 07:29:13;;;;;;;40.20;20.45;;;;;;;;;;5002300;28;20104;-49
2024/02/28 07:32:02;;;;;;;36.50;18.92;;;;;;;;;;4997751;28;20055;-52
2024/02/28 07:34:55;;;;;;;35.75;18.10;;;;;;;;;;5000280;28;20050;-47
2024/02/28 07:37:42;;;;;;;36.33;17.42;;;;;;;;;;4995752;28;20050;-49
2024/02/28 07:40:36;;;;;;;34.28;16.70;;;;;;;;;;4979728;28;20058;-47
2024/02/28 07:43:03;;;;;;;38.05;18.08;;;;;;;;;;4976237;28;20061;-61
2024/02/28 07:45:56;;;;;;;37.50;18.50;;;;;;;;;;4997216;28;21214;-66
2024/02/28 07:48:50;;;;;;;39.67;18.88;;;;;;;;;;4993904;28;20422;-66
2024/02/28 07:51:37;;;;;;;38.25;19.30;;;;;;;;;;4995311;28;20050;-66
2024/02/28 07:54:31;;;;;;;34.97;17.70;;;;;;;;;;4992753;28;20046;-65
2024/02/28 07:57:19;;;;;;;35.55;18.00;;;;;;;;;;4995126;28;20073;-65
2024/02/28 08:00:16;;;;;;;42.42;19.77;;;;;;;;;;4994709;28;20054;-64
2024/02/28 08:03:03;;;;;;;35.85;17.73;;;;;;;;;;4993374;28;20718;-63
2024/02/28 08:05:56;;;;;;;29.92;15.48;;;;;;;;;;4994014;28;20060;-64
2024/02/28 08:08:50;;;;;;;27.55;16.13;;;;;;;;;;4996765;28;20516;-65
2024/02/28 08:11:44;;;;;;;29.48;15.52;;;;;;;;;;4989207;28;20061;-65
2024/02/28 08:14:34;;;;;;;31.23;15.45;;;;;;;;;;4995175;28;20108;-64
2024/02/28 08:17:28;;;;;;;33.13;15.85;;;;;;;;;;4992120;28;20050;-65
2024/02/28 08:20:22;;;;;;;34.40;15.02;;;;;;;;;;4997535;28;20132;-64
2024/02/28 08:23:10;;;;;;;28.63;15.13;;;;;;;;;;4993718;28;20054;-50
2024/02/28 08:26:04;;;;;;;29.70;14.75;;;;;;;;;;4994486;28;20049;-50
2024/02/28 08:28:51;;;;;;;23.75;12.73;;;;;;;;;;4996936;28;20065;-48
2024/02/28 08:31:45;;;;;;;24.63;12.77;;;;;;;;;;4994290;28;20502;-49
2024/02/28 08:34:32;;;;;;;19.35;11.25;;;;;;;;;;4995775;28;20100;-50
2024/02/28 08:37:27;;;;;;;19.88;11.60;;;;;;;;;;4994874;28;20081;-56
2024/02/28 08:40:13;;;;;;;19.88;12.07;;;;;;;;;;4996250;28;20054;-63
2024/02/28 08:43:06;;;;;;;17.80;10.40;;;;;;;;;;4993985;28;20062;-63
2024/02/28 08:46:00;;;;;;;14.60;9.20;;;;;;;;;;4991953;28;20105;-63
2024/02/28 08:48:47;;;;;;;15.02;9.00;;;;;;;;;;4993332;28;20050;-63
2024/02/28 08:51:41;;;;;;;20.77;9.80;;;;;;;;;;4996858;28;20065;-63
2024/02/28 08:54:29;;;;;;;16.15;9.77;;;;;;;;;;4994368;28;20081;-64
2024/02/28 08:57:23;;;;;;;15.98;8.65;;;;;;;;;;4993570;28;20058;-66
2024/02/28 09:00:10;;;;;;;11.93;7.88;;;;;;;;;;4988191;28;20253;-51
2024/02/28 09:03:04;;;;;;;12.63;7.40;;;;;;;;;;4994538;28;20051;-56
2024/02/28 09:05:52;;;;;;;12.07;7.30;;;;;;;;;;4996374;28;20112;-55
2024/02/28 09:08:45;;;;;;;14.25;6.72;;;;;;;;;;4994820;28;20091;-56
2024/02/28 09:11:32;;;;;;;11.68;6.22;;;;;;;;;;4995511;28;20433;-57
2024/02/28 09:14:26;;;;;;;13.80;5.93;;;;;;;;;;4998621;28;20486;-66
2024/02/28 09:17:33;;;;;;;10.25;6.00;;;;;;;;;;4997330;28;20141;-63
2024/02/28 09:20:27;;;;;;;10.90;5.68;;;;;;;;;;4997787;28;20058;-63
2024/02/28 09:23:15;;;;;;;8.95;6.05;;;;;;;;;;4997572;28;20052;-63
2024/02/28 09:26:09;;;;;;;8.25;5.70;;;;;;;;;;4997032;28;20065;-64
2024/02/28 09:28:56;;;;;;;10.85;5.75;;;;;;;;;;4995946;28;20057;-63
2024/02/28 09:31:29;;;;;;;9.63;5.00;;;;;;;;;;4999186;28;20058;-63
2024/02/28 09:34:16;;;;;;;9.57;5.35;;;;;;;;;;4999552;28;20068;-67
2024/02/28 09:37:11;;;;;;;7.88;5.03;;;;;;;;;;4996472;28;20054;-56
2024/02/28 09:39:58;;;;;;;9.10;5.18;;;;;;;;;;4997746;28;20058;-61
2024/02/28 09:42:57;;;;;;;5.60;3.53;;;;;;;;;;4997427;28;20057;-57
2024/02/28 09:45:44;;;;;;;8.00;4.75;;;;;;;;;;4998433;28;20054;-59
2024/02/28 09:48:43;;;;;;;10.90;5.90;;;;;;;;;;4997799;28;20046;-61
2024/02/28 09:51:31;;;;;;;10.95;5.47;;;;;;;;;;4999550;28;20050;-64
2024/02/28 09:54:25;;;;;;;7.47;5.38;;;;;;;;;;4997092;28;20490;-66
2024/02/28 09:57:12;;;;;;;8.13;5.50;;;;;;;;;;4996284;28;20046;-66
2024/02/28 10:00:07;;;;;;;11.63;5.20;;;;;;;;;;4999539;28;20513;-66
2024/02/28 10:02:54;;;;;;;10.40;6.22;;;;;;;;;;4996666;28;20057;-66
2024/02/28 10:05:47;;;;;;;9.05;6.13;;;;;;;;;;4997905;28;20054;-68
2024/02/28 10:08:38;;;;;;;11.15;6.03;;;;;;;;;;4997854;28;20137;-58
2024/02/28 10:11:33;;;;;;;12.18;7.38;;;;;;;;;;4996326;28;20497;-56
2024/02/28 10:14:19;;;;;;;15.23;8.73;;;;;;;;;;5000028;28;20054;-67
2024/02/28 10:17:25;;;;;;;17.60;8.85;;;;;;;;;;4996962;28;20058;-67
2024/02/28 10:20:19;;;;;;;20.40;9.63;;;;;;;;;;4998308;28;20136;-67
2024/02/28 10:23:13;;;;;;;26.52;11.35;;;;;;;;;;5001463;28;20116;-67
2024/02/28 10:26:02;;;;;;;26.13;12.48;;;;;;;;;;5000912;28;20541;-67
2024/02/28 10:28:54;;;;;;;32.55;13.18;;;;;;;;;;4997450;28;20581;-66
2024/02/28 10:31:42;;;;;;;34.92;15.70;;;;;;;;;;4997607;28;20061;-53
2024/02/28 10:34:36;;;;;;;45.40;16.15;;;;;;;;;;4998392;28;20046;-49
2024/02/28 10:37:23;;;;;;;45.70;18.00;;;;;;;;;;5000124;28;20050;-49
2024/02/28 10:40:17;;;;;;;47.80;19.58;;;;;;;;;;4998086;28;20058;-49
2024/02/28 10:43:05;;;;;;;59.45;20.15;;;;;;;;;;4988065;28;20053;-49
2024/02/28 10:45:59;;;;;;;69.65;21.48;;;;;;;;;;5000408;28;20664;-54
2024/02/28 10:49:03;;;;;;;64.32;22.42;;;;;;;;;;4995706;28;20506;-55
2024/02/28 10:51:57;;;;;;;77.95;23.08;;;;;;;;;;4996687;28;20118;-58
2024/02/28 10:54:45;;;;;;;59.60;21.55;;;;;;;;;;4999971;28;20136;-56
2024/02/28 10:57:40;;;;;;;77.65;25.17;;;;;;;;;;4997140;28;20128;-57
2024/02/28 11:00:27;;;;;;;69.38;23.73;;;;;;;;;;4993569;28;20053;-56
2024/02/28 11:03:20;;;;;;;64.68;23.70;;;;;;;;;;4993611;28;20069;-57
2024/02/28 11:06:17;;;;;;;85.95;28.13;;;;;;;;;;4995968;28;20053;-55
2024/02/28 11:09:13;;;;;;;82.43;24.98;;;;;;;;;;4996669;28;20058;-50
2024/02/28 11:11:58;;;;;;;93.57;28.63;;;;;;;;;;4994532;28;20062;-48
2024/02/28 11:15:01;;;;;;;69.75;23.60;;;;;;;;;;4991157;28;20424;-52
2024/02/28 11:17:49;;;;;;;80.55;26.27;;;;;;;;;;4990814;28;20055;-52
2024/02/28 11:20:50;;;;;;;84.97;26.85;;;;;;;;;;4994676;28;20104;-50
2024/02/28 11:23:38;;;;;;;55.63;21.35;;;;;;;;;;4991555;28;20081;-48
2024/02/28 11:26:32;;;;;;;78.90;24.90;;;;;;;;;;4988519;28;20123;-65
2024/02/28 11:29:24;;;;;;;71.03;24.23;;;;;;;;;;4992163;28;20064;-65
2024/02/28 11:32:18;;;;;;;89.43;28.02;;;;;;;;;;4994694;28;20065;-66
2024/02/28 11:35:05;;;;;;;77.88;25.33;;;;;;;;;;4994349;28;20478;-65
2024/02/28 11:37:58;;;;;;;66.25;24.88;;;;;;;;;;4995673;28;20853;-66
2024/02/28 11:40:50;;;;;;;61.60;23.83;;;;;;;;;;4994221;28;20746;-59
2024/02/28 11:43:43;;;;;;;102.72;28.05;;;;;;;;;;4994337;28;20114;-56
2024/02/28 11:46:31;;;;;;;70.60;25.80;;;;;;;;;;4990590;28;20674;-55
2024/02/28 11:49:26;;;;;;;75.65;24.88;;;;;;;;;;4991235;28;20108;-57
2024/02/28 11:52:13;;;;;;;67.70;23.92;;;;;;;;;;4995163;28;20101;-54
2024/02/28 11:55:07;;;;;;;67.68;23.80;;;;;;;;;;4992910;28;20108;-57
2024/02/28 11:57:54;;;;;;;63.00;23.75;;;;;;;;;;4992909;28;20074;-55
2024/02/28 12:00:51;;;;;;;62.22;22.02;;;;;;;;;;4993432;28;20100;-66
2024/02/28 12:03:46;;;;;;;65.72;22.40;;;;;;;;;;4996412;28;20050;-47
2024/02/28 12:06:34;;;;;;;55.53;19.83;;;;;;;;;;4993522;28;20045;-48
2024/02/28 12:09:28;;;;;;;51.85;17.92;;;;;;;;;;5001332;28;20050;-47
2024/02/28 12:12:15;;;;;;;68.72;22.98;;;;;;;;;;4993038;28;20802;-47
2024/02/28 12:15:09;;;;;;;51.63;18.88;;;;;;;;;;4997823;28;21025;-49
2024/02/28 12:18:03;;;;;;;51.97;19.65;;;;;;;;;;4995873;28;20064;-51
2024/02/28 12:20:57;;;;;;;54.63;20.13;;;;;;;;;;4993536;28;20149;-52
2024/02/28 12:23:52;;;;;;;51.15;20.42;;;;;;;;;;4996547;28;20498;-53
2024/02/28 12:26:39;;;;;;;46.30;18.15;;;;;;;;;;4992360;28;20518;-55
2024/02/28 12:29:32;;;;;;;50.58;19.10;;;;;;;;;;4994179;28;20050;-56
2024/02/28 12:32:20;;;;;;;61.35;19.50;;;;;;;;;;4984098;28;20054;-53
2024/02/28 12:35:13;;;;;;;59.80;17.67;;;;;;;;;;4993558;28;20112;-54
2024/02/28 12:38:01;;;;;;;44.45;16.88;;;;;;;;;;4992361;28;20827;-63
2024/02/28 12:40:55;;;;;;;49.30;17.73;;;;;;;;;;4993391;28;20580;-58
2024/02/28 12:43:42;;;;;;;44.55;16.00;;;;;;;;;;4990912;28;20054;-60
2024/02/28 12:46:36;;;;;;;43.83;17.17;;;;;;;;;;4997313;28;20058;-60
2024/02/28 12:49:23;;;;;;;49.28;19.58;;;;;;;;;;4993565;28;20050;-62
2024/02/28 12:52:16;;;;;;;50.95;17.63;;;;;;;;;;4996235;28;20134;-59
2024/02/28 12:55:11;;;;;;;41.65;14.43;;;;;;;;;;4994845;28;20061;-61
2024/02/28 12:58:00;;;;;;;42.45;14.80;;;;;;;;;;4993654;28;20077;-63
2024/02/28 13:00:52;;;;;;;34.20;15.35;;;;;;;;;;4992408;28;20045;-63
2024/02/28 13:03:39;;;;;;;40.75;16.05;;;;;;;;;;4999070;28;20065;-63
2024/02/28 13:06:33;;;;;;;48.42;15.50;;;;;;;;;;4997485;28;20049;-64
2024/02/28 13:09:22;;;;;;;45.80;16.45;;;;;;;;;;4995613;28;20129;-63
2024/02/28 13:12:21;;;;;;;42.78;14.45;;;;;;;;;;4996348;28;20104;-63
2024/02/28 13:15:08;;;;;;;46.25;15.30;;;;;;;;;;4995098;28;20077;-53
2024/02/28 13:18:10;;;;;;;37.30;13.90;;;;;;;;;;4992398;28;20137;-49
2024/02/28 13:20:44;;;;;;;39.30;14.70;;;;;;;;;;4995769;28;20100;-49
2024/02/28 13:23:18;;;;;;;47.45;15.13;;;;;;;;;;4996850;28;20552;-52
2024/02/28 13:25:45;;;;;;;38.05;14.95;;;;;;;;;;4995375;28;20471;-49
2024/02/28 13:28:39;;;;;;;54.13;15.15;;;;;;;;;;4994979;28;20694;-47
2024/02/28 13:31:26;;;;;;;48.58;15.25;;;;;;;;;;4997547;28;20502;-63
2024/02/28 13:34:20;;;;;;;43.40;14.80;;;;;;;;;;4997040;28;20057;-60
2024/02/28 13:37:08;;;;;;;43.25;13.75;;;;;;;;;;4995595;28;20494;-61
2024/02/28 13:40:04;;;;;;;59.72;17.73;;;;;;;;;;4998282;28;20062;-61
2024/02/28 13:42:49;;;;;;;49.65;16.13;;;;;;;;;;4996522;28;20085;-62
2024/02/28 13:45:49;;;;;;;54.30;16.83;;;;;;;;;;4995505;28;20675;-60
2024/02/28 13:48:36;;;;;;;55.72;15.40;;;;;;;;;;4994990;28;20054;-60
2024/02/28 13:51:31;;;;;;;49.10;16.45;;;;;;;;;;4996691;28;20779;-55
2024/02/28 13:54:18;;;;;;;56.83;18.52;;;;;;;;;;4993834;28;20054;-64
2024/02/28 13:57:11;;;;;;;56.03;18.05;;;;;;;;;;4994344;28;20050;-60
2024/02/28 13:59:59;;;;;;;51.25;16.92;;;;;;;;;;4993380;28;20054;-61
2024/02/28 14:02:53;;;;;;;63.03;20.95;;;;;;;;;;4995912;28;20054;-60
2024/02/28 14:05:40;;;;;;;66.38;20.65;;;;;;;;;;4992415;28;20050;-63
2024/02/28 14:08:33;;;;;;;62.90;19.55;;;;;;;;;;4998744;28;20108;-61
2024/02/28 14:11:27;;;;;;;62.50;19.70;;;;;;;;;;4996469;28;20112;-62
2024/02/28 14:14:21;;;;;;;75.72;25.73;;;;;;;;;;4995365;28;20053;-61
2024/02/28 14:17:15;;;;;;;67.53;18.85;;;;;;;;;;4995720;28;20073;-61
2024/02/28 14:20:09;;;;;;;66.18;19.50;;;;;;;;;;4957714;28;20625;-61
2024/02/28 14:23:04;;;;;;;63.60;19.33;;;;;;;;;;4953317;28;20109;-61
2024/02/28 14:25:51;;;;;;;69.20;18.88;;;;;;;;;;4958477;28;20062;-64
2024/02/28 14:28:44;;;;;;;68.70;19.20;;;;;;;;;;4956964;28;20047;-66
2024/02/28 14:31:32;;;;;;;63.72;18.48;;;;;;;;;;4954628;28;20082;-52
2024/02/28 14:34:25;;;;;;;63.00;19.23;;;;;;;;;;4957026;28;20059;-52
2024/02/28 14:37:13;;;;;;;69.43;19.20;;;;;;;;;;4954691;28;20058;-51
2024/02/28 14:40:10;;;;;;;78.55;20.02;;;;;;;;;;4954129;28;20062;-49
2024/02/28 14:42:57;;;;;;;76.97;20.10;;;;;;;;;;4956660;28;20059;-47
2024/02/28 14:45:51;;;;;;;78.53;21.40;;;;;;;;;;4954140;28;20082;-64
2024/02/28 14:48:50;;;;;;;76.55;21.05;;;;;;;;;;4956177;28;20055;-67
2024/02/28 14:51:41;;;;;;;71.40;20.90;;;;;;;;;;4957598;28;20070;-66
2024/02/28 14:54:33;;;;;;;78.03;22.02;;;;;;;;;;4954138;28;20054;-66
2024/02/28 14:57:30;;;;;;;80.45;19.35;;;;;;;;;;4954116;28;20781;-66
2024/02/28 15:00:15;;;;;;;64.93;18.38;;;;;;;;;;4955736;28;20082;-66
2024/02/28 15:03:09;;;;;;;87.63;20.00;;;;;;;;;;4960385;28;20109;-63
2024/02/28 15:05:56;;;;;;;74.93;21.05;;;;;;;;;;4958723;28;20059;-61
2024/02/28 15:08:50;;;;;;;66.95;18.67;;;;;;;;;;4958030;28;20477;-61
2024/02/28 15:11:37;;;;;;;63.65;17.30;;;;;;;;;;4958968;28;21352;-63
2024/02/28 15:14:31;;;;;;;72.47;20.00;;;;;;;;;;4955450;28;20807;-62
2024/02/28 15:17:18;;;;;;;67.38;18.40;;;;;;;;;;4959233;28;20102;-61
2024/02/28 15:20:18;;;;;;;63.25;19.70;;;;;;;;;;4997084;28;20050;-61
2024/02/28 15:23:05;;;;;;;62.53;17.58;;;;;;;;;;4996121;28;20109;-54
2024/02/28 15:25:59;;;;;;;67.18;17.23;;;;;;;;;;4996339;28;20714;-58
2024/02/28 15:28:57;;;;;;;62.53;17.58;;;;;;;;;;4995336;28;20104;-58
2024/02/28 15:31:52;;;;;;;71.07;17.63;;;;;;;;;;4985668;28;20057;-58
2024/02/28 15:34:40;;;;;;;71.13;18.63;;;;;;;;;;4989539;28;20056;-60
2024/02/28 15:37:33;;;;;;;73.28;17.52;;;;;;;;;;4996230;28;20129;-57
2024/02/28 15:40:26;;;;;;;60.15;17.52;;;;;;;;;;4994029;28;20481;-60
2024/02/28 15:43:13;;;;;;;69.82;17.13;;;;;;;;;;4992830;28;20108;-61
2024/02/28 15:46:07;;;;;;;68.00;17.25;;;;;;;;;;4989452;28;20054;-62
2024/02/28 15:48:54;;;;;;;76.93;18.50;;;;;;;;;;4995361;28;20101;-61
2024/02/28 15:52:05;;;;;;;73.43;18.60;;;;;;;;;;4993123;28;20572;-61
2024/02/28 15:54:52;;;;;;;76.20;18.58;;;;;;;;;;4994236;28;20113;-61
2024/02/28 15:57:47;;;;;;;78.88;19.50;;;;;;;;;;4997662;28;20486;-57
2024/02/28 16:00:34;;;;;;;77.82;19.58;;;;;;;;;;4993475;28;20170;-48
2024/02/28 16:03:28;;;;;;;73.03;19.70;;;;;;;;;;4997997;28;20077;-58
2024/02/28 16:06:15;;;;;;;62.33;18.65;;;;;;;;;;4999502;28;20080;-58
2024/02/28 16:09:09;;;;;;;71.28;19.27;;;;;;;;;;4997374;28;20057;-59
2024/02/28 16:11:56;;;;;;;61.33;19.58;;;;;;;;;;4999191;28;20082;-58
2024/02/28 16:14:50;;;;;;;77.53;22.45;;;;;;;;;;4996494;28;20047;-59
2024/02/28 16:17:56;;;;;;;84.40;21.55;;;;;;;;;;4996918;28;20057;-51
2024/02/28 16:20:51;;;;;;;70.05;21.25;;;;;;;;;;4976553;28;20220;-48
2024/02/28 16:23:45;;;;;;;84.55;21.00;;;;;;;;;;4979484;28;20054;-52
2024/02/28 16:26:32;;;;;;;84.70;20.83;;;;;;;;;;4981749;28;20054;-45
2024/02/28 16:29:26;;;;;;;71.57;22.05;;;;;;;;;;4965873;28;21061;-50
2024/02/28 16:32:14;;;;;;;66.20;20.25;;;;;;;;;;4970894;28;20085;-48
2024/02/28 16:35:08;;;;;;;82.10;20.55;;;;;;;;;;4971911;28;20054;-61
2024/02/28 16:37:55;;;;;;;83.18;22.75;;;;;;;;;;4969489;28;20059;-49
2024/02/28 16:40:48;;;;;;;84.70;24.70;;;;;;;;;;4971594;28;20078;-46